Ext Santa Paula, Puerto Rico
Current Conditions -  °F | °C
As of 3:56 AM on Monday 26 Jan 2015 (Local Time) from TJSJ Reporting Station
Scattered Clouds Scattered Clouds  
Wind Chill: 74°   Ceiling: Unl
Heat Index: 74°   Visibility: 10mi
Dew Point: 71°   Wind: 0mph
Humidity: 91%   Direction: NA
Pressure: 29.96"   Gusts: NA
Location:  18.3866°N, 66.1135°W
Report Text: TJSJ 260756Z 00000KT 10SM FEW020 SCT070 23/22 A2996 RMK AO2 SLP144 T02330217
Loading
Personal Weather Stations






























Interactive Weather Map New forecast layout! Learn more

10-Day Weather Forecast

Advertisements
Track Severe Weather on mobile